createdAt,value
2022-08-25T00:01:48.310Z,52
2022-08-25T00:11:48.110Z,52.8
2022-08-25T00:31:48.348Z,52.3
2022-08-25T00:41:48.371Z,52.8
2022-08-25T01:01:48.475Z,52.9
2022-08-25T01:11:48.393Z,53.5
2022-08-25T01:21:48.406Z,54.5
2022-08-25T01:31:48.436Z,55.1
2022-08-25T01:41:48.436Z,55.5
2022-08-25T01:51:48.472Z,56
2022-08-25T02:01:48.529Z,56.4
2022-08-25T02:21:48.337Z,57.8
2022-08-25T02:31:48.551Z,58.4
2022-08-25T02:41:48.348Z,59
2022-08-25T03:01:48.380Z,59.7
2022-08-25T03:11:48.572Z,60
2022-08-25T03:21:48.613Z,60.5
2022-08-25T03:31:48.708Z,61
2022-08-25T03:41:48.631Z,61.9
2022-08-25T04:41:48.714Z,65.5
2022-08-25T04:51:48.727Z,65.1
2022-08-25T05:31:50.758Z,62.4
2022-08-25T05:41:48.805Z,62.1
2022-08-25T05:51:48.840Z,61.7
2022-08-25T06:41:48.915Z,58.1
2022-08-25T06:51:48.893Z,57.8
2022-08-25T07:01:49.599Z,56.8
2022-08-25T07:21:48.958Z,53.6
2022-08-25T07:31:48.990Z,51.5
2022-08-25T07:41:52.003Z,51.4
2022-08-25T07:52:04.205Z,51.7
2022-08-25T08:01:48.918Z,50.1
2022-08-25T08:11:54.328Z,49.7
2022-08-25T08:21:49.031Z,47.9
2022-08-25T08:31:49.117Z,47.5
2022-08-25T08:42:09.591Z,46.8
2022-08-25T08:51:49.060Z,47.2
2022-08-25T09:01:52.599Z,46.8
2022-08-25T09:21:49.125Z,45.8
2022-08-25T09:31:49.211Z,44.3
2022-08-25T09:51:49.160Z,42.4
2022-08-25T10:21:49.215Z,41.1
2022-08-25T10:31:49.217Z,40.1
2022-08-25T10:41:49.305Z,40.3
2022-08-25T11:01:53.436Z,39.1
2022-08-25T11:11:49.283Z,39.4
2022-08-25T11:21:49.288Z,39.2
2022-08-25T11:31:53.020Z,37.7
2022-08-25T11:41:49.324Z,38.9
2022-08-25T12:01:49.360Z,37.1
2022-08-25T12:11:49.366Z,36.4
2022-08-25T12:41:49.463Z,35.3
2022-08-25T12:51:49.273Z,35.3
2022-08-25T13:21:49.489Z,34
2022-08-25T13:31:49.935Z,33.1
2022-08-25T13:41:49.528Z,32.3
2022-08-25T14:01:50.230Z,31.1
2022-08-25T14:11:49.566Z,32.2
2022-08-25T14:21:49.742Z,32.4
2022-08-25T14:31:49.669Z,31.6
2022-08-25T14:41:53.194Z,32.2
2022-08-25T14:51:49.474Z,32.2
2022-08-25T15:01:50.127Z,32.3
2022-08-25T15:11:50.574Z,31.2
2022-08-25T15:21:49.693Z,31.7
2022-08-25T15:31:49.774Z,33.4
2022-08-25T15:51:49.714Z,35.9
2022-08-25T16:01:49.805Z,36.4
2022-08-25T16:11:55.837Z,37.8
2022-08-25T16:21:49.786Z,37.5
2022-08-25T16:31:54.792Z,37.6
2022-08-25T16:41:49.795Z,38.3
2022-08-25T16:51:49.817Z,38.2
2022-08-25T17:01:49.854Z,39.5
2022-08-25T17:11:49.834Z,40
2022-08-25T17:21:50.084Z,40.9
2022-08-25T17:31:49.872Z,41.2
2022-08-25T17:41:49.921Z,42
2022-08-25T17:51:49.896Z,42.8
2022-08-25T18:01:50.054Z,43.4
2022-08-25T18:11:49.940Z,43.9
2022-08-25T18:21:49.942Z,44.5
2022-08-25T18:31:51.942Z,45.1
2022-08-25T18:41:49.970Z,45.9
2022-08-25T18:51:49.973Z,47.4
2022-08-25T19:01:50.362Z,47.9
2022-08-25T19:21:50.870Z,47.7
2022-08-25T19:31:50.044Z,48.1
2022-08-25T19:41:49.869Z,48.5
2022-08-25T19:51:51.169Z,49
2022-08-25T20:11:50.095Z,50.6
2022-08-25T20:21:50.134Z,51.4
2022-08-25T20:41:50.160Z,52.4
2022-08-25T21:01:50.238Z,52.9
2022-08-25T21:11:50.182Z,53.4
2022-08-25T21:21:50.184Z,54.1
2022-08-25T21:31:50.211Z,54.7
2022-08-25T21:41:50.221Z,55.5
2022-08-25T21:51:59.153Z,56.3
2022-08-25T22:01:50.262Z,56.3
2022-08-25T22:11:50.270Z,55.8
2022-08-25T22:21:50.298Z,56.1
2022-08-25T22:31:51.097Z,56.8
2022-08-25T22:41:50.345Z,57.4
2022-08-25T22:51:50.315Z,57.8
2022-08-25T23:11:51.246Z,58.2
2022-08-25T23:21:50.370Z,58.1
2022-08-25T23:31:50.398Z,57.8
2022-08-25T23:41:50.421Z,58
